Time;durP1;ratioP1;P1;durP2;ratioP2;P2;SDS_P1;SDS_P2;PMS_P1;PMS_P2;Temp;Humidity;BMP_temperature;BMP_pressure;BME280_temperature;BME280_humidity;BME280_pressure;Samples;Min_cycle;Max_cycle;Signal;HPM_P1;HPM_P2
2021/10/30 00:01:40;;;;;;;49.33;31.10;;;;;;;4.50;100.00;101626.16;1761675;81;21054;-74
2021/10/30 00:04:08;;;;;;;49.97;31.17;;;;;;;4.51;100.00;101623.84;1761406;81;21461;-72
2021/10/30 00:06:34;;;;;;;49.10;31.90;;;;;;;4.52;100.00;101626.92;1699214;81;21058;-73
2021/10/30 00:09:01;;;;;;;52.97;32.77;;;;;;;4.50;100.00;101632.37;1731528;81;21014;-73
2021/10/30 00:11:29;;;;;;;48.27;30.70;;;;;;;4.50;100.00;101631.52;1761422;81;21539;-73
2021/10/30 00:13:56;;;;;;;48.07;29.73;;;;;;;4.50;100.00;101635.05;1731969;81;21046;-73
2021/10/30 00:16:24;;;;;;;52.50;32.63;;;;;;;4.50;100.00;101625.67;1761248;81;21149;-73
2021/10/30 00:18:51;;;;;;;49.97;33.13;;;;;;;4.50;100.00;101621.66;1731942;81;21003;-72
2021/10/30 00:21:18;;;;;;;47.53;30.37;;;;;;;4.50;100.00;101624.33;1731709;81;21622;-74
2021/10/30 00:23:45;;;;;;;47.20;30.33;;;;;;;4.50;100.00;101624.82;1761167;81;21063;-73
2021/10/30 00:26:13;;;;;;;48.23;30.13;;;;;;;4.48;100.00;101616.87;1761174;81;21055;-73
2021/10/30 00:28:40;;;;;;;47.93;31.00;;;;;;;4.48;100.00;101629.38;1761177;81;21542;-72
2021/10/30 00:31:07;;;;;;;49.77;31.60;;;;;;;4.45;100.00;101627.77;1761540;81;20988;-75
2021/10/30 00:33:35;;;;;;;49.60;33.00;;;;;;;4.42;100.00;101631.95;1731695;81;21599;-73
2021/10/30 00:36:03;;;;;;;49.20;32.17;;;;;;;4.41;100.00;101626.23;1731896;81;21039;-74
2021/10/30 00:38:32;;;;;;;47.87;30.77;;;;;;;4.38;100.00;101620.56;1761268;81;21059;-72
2021/10/30 00:40:59;;;;;;;48.10;30.47;;;;;;;4.39;100.00;101625.44;1732130;81;21059;-74
2021/10/30 00:43:26;;;;;;;53.77;37.43;;;;;;;4.37;100.00;101630.92;1732716;81;21520;-74
2021/10/30 00:45:53;;;;;;;81.17;53.47;;;;;;;4.37;100.00;101631.37;1733009;83;21042;-73
2021/10/30 00:48:19;;;;;;;92.20;60.20;;;;;;;4.35;100.00;101632.80;1690019;84;20987;-74
2021/10/30 00:50:47;;;;;;;71.70;46.60;;;;;;;4.33;100.00;101629.84;1715803;84;21500;-73
2021/10/30 00:53:14;;;;;;;55.90;34.97;;;;;;;4.32;100.00;101636.13;1734484;82;21483;-74
2021/10/30 00:55:42;;;;;;;46.33;30.77;;;;;;;4.31;100.00;101631.75;1710325;82;21002;-73
2021/10/30 00:58:10;;;;;;;52.00;32.13;;;;;;;4.30;100.00;101630.02;1739603;82;21092;-73
2021/10/30 01:00:38;;;;;;;56.17;33.03;;;;;;;4.28;100.00;101629.25;1739329;82;21065;-74
2021/10/30 01:03:08;;;;;;;60.20;35.37;;;;;;;4.26;100.00;101631.16;1739398;82;21573;-73
2021/10/30 01:05:36;;;;;;;46.97;30.03;;;;;;;4.23;100.00;101625.49;1739693;82;21487;-73
2021/10/30 01:08:06;;;;;;;47.63;31.17;;;;;;;4.22;100.00;101622.45;1739171;82;21038;-73
2021/10/30 01:10:34;;;;;;;50.90;31.67;;;;;;;4.22;100.00;101629.14;1710254;82;21014;-73
2021/10/30 01:13:01;;;;;;;62.73;36.67;;;;;;;4.22;100.00;101631.82;1739591;82;21009;-73
2021/10/30 01:15:30;;;;;;;55.17;33.87;;;;;;;4.21;100.00;101623.39;1709960;82;21022;-73
2021/10/30 01:17:57;;;;;;;76.07;41.57;;;;;;;4.21;100.00;101623.87;1740604;81;21116;-74
2021/10/30 01:20:26;;;;;;;64.87;38.43;;;;;;;4.19;100.00;101625.30;1717303;82;21078;-74
2021/10/30 01:22:59;;;;;;;64.73;37.03;;;;;;;4.17;100.00;101626.72;1717735;82;21041;-72
2021/10/30 01:25:26;;;;;;;76.20;40.73;;;;;;;4.18;100.00;101627.61;1680941;85;21038;-72
2021/10/30 01:27:53;;;;;;;79.77;41.13;;;;;;;4.17;100.00;101625.88;1680640;85;21106;-74
2021/10/30 01:30:21;;;;;;;90.87;43.07;;;;;;;4.17;100.00;101624.53;1680466;85;21061;-73
2021/10/30 01:33:03;;;;;;;100.03;49.57;;;;;;;4.16;100.00;101623.68;1680713;85;21028;-74
2021/10/30 01:35:43;;;;;;;77.30;39.10;;;;;;;4.17;100.00;101628.55;1635452;85;21052;-74
2021/10/30 01:38:11;;;;;;;68.97;41.53;;;;;;;4.17;100.00;101629.89;1599753;88;21090;-73
2021/10/30 01:40:41;;;;;;;105.13;53.23;;;;;;;4.16;100.00;101631.72;1649986;87;21053;-73
2021/10/30 01:43:08;;;;;;;105.07;54.63;;;;;;;4.16;100.00;101635.73;1622033;88;21590;-72
2021/10/30 01:45:35;;;;;;;160.60;63.47;;;;;;;4.16;100.00;101631.72;1576205;90;21113;-74
2021/10/30 01:48:03;;;;;;;139.07;56.27;;;;;;;4.16;100.00;101633.05;1608763;87;21610;-73
2021/10/30 01:50:31;;;;;;;96.70;44.13;;;;;;;4.16;100.00;101637.07;1650259;87;21577;-73
2021/10/30 01:53:00;;;;;;;196.70;73.43;;;;;;;4.14;100.00;101643.00;1628196;87;21049;-73
2021/10/30 01:55:28;;;;;;;215.63;81.40;;;;;;;4.15;100.00;101640.69;1650145;87;21618;-73
2021/10/30 01:57:55;;;;;;;179.93;71.17;;;;;;;4.17;100.00;101647.30;1650000;87;21073;-73
2021/10/30 02:00:24;;;;;;;121.50;53.60;;;;;;;4.20;100.00;101641.77;1649951;87;21046;-73
2021/10/30 02:02:54;;;;;;;123.80;50.80;;;;;;;4.20;100.00;101644.44;1650758;87;21119;-73
2021/10/30 02:05:21;;;;;;;80.37;40.47;;;;;;;4.21;100.00;101648.83;1628697;87;21074;-72
2021/10/30 02:07:48;;;;;;;60.53;33.53;;;;;;;4.22;100.00;101651.05;1650305;87;21093;-72
2021/10/30 02:10:15;;;;;;;54.93;30.67;;;;;;;4.21;100.00;101646.63;1650761;87;21046;-73
2021/10/30 02:12:44;;;;;;;53.60;30.70;;;;;;;4.19;100.00;101648.91;1628691;87;21066;-73
2021/10/30 02:15:11;;;;;;;55.43;31.63;;;;;;;4.18;100.00;101647.69;1601445;88;21007;-74
2021/10/30 02:17:37;;;;;;;60.50;33.10;;;;;;;4.14;100.00;101651.03;1663535;84;21085;-73
2021/10/30 02:20:09;;;;;;;58.80;32.83;;;;;;;4.10;100.00;101648.13;1639984;86;21582;-73
2021/10/30 02:22:38;;;;;;;48.47;29.00;;;;;;;4.07;100.00;101652.34;1680865;83;21084;-73
2021/10/30 02:25:06;;;;;;;43.60;26.50;;;;;;;4.05;100.00;101648.02;1757962;82;21046;-73
2021/10/30 02:27:34;;;;;;;42.90;27.17;;;;;;;4.02;100.00;101646.39;1758268;82;21061;-73
2021/10/30 02:30:04;;;;;;;44.87;27.90;;;;;;;4.01;100.00;101654.50;1757968;82;20998;-72
2021/10/30 02:32:33;;;;;;;42.98;27.27;;;;;;;3.97;100.00;101647.13;1758442;81;21009;-73
2021/10/30 02:35:00;;;;;;;43.43;26.57;;;;;;;3.93;100.00;101646.90;1730268;82;21057;-73
2021/10/30 02:37:27;;;;;;;43.90;26.60;;;;;;;3.90;100.00;101648.44;1758416;82;21034;-74
2021/10/30 02:39:55;;;;;;;39.17;25.97;;;;;;;3.87;100.00;101648.61;1730193;82;21034;-73
2021/10/30 02:42:21;;;;;;;40.97;24.67;;;;;;;3.83;100.00;101647.92;1730614;82;21022;-73
2021/10/30 02:44:48;;;;;;;42.50;26.50;;;;;;;3.82;100.00;101651.53;1740918;81;21023;-72
2021/10/30 02:47:15;;;;;;;38.83;26.07;;;;;;;3.83;100.00;101659.11;1814363;79;21002;-73
2021/10/30 02:49:42;;;;;;;46.27;27.17;;;;;;;3.82;100.00;101658.70;1794958;79;21035;-73
2021/10/30 02:52:09;;;;;;;46.20;26.10;;;;;;;3.79;100.00;101663.77;1765205;80;21520;-73
2021/10/30 02:54:36;;;;;;;39.63;24.43;;;;;;;3.77;100.00;101666.53;1764828;80;21003;-73
2021/10/30 02:57:03;;;;;;;40.67;23.77;;;;;;;3.78;100.00;101668.24;1794265;80;21484;-73
2021/10/30 02:59:31;;;;;;;42.13;25.53;;;;;;;3.77;100.00;101675.02;1765332;80;21496;-73
2021/10/30 03:01:58;;;;;;;45.20;26.67;;;;;;;3.75;100.00;101675.13;1793908;80;21031;-74
2021/10/30 03:04:24;;;;;;;41.17;25.67;;;;;;;3.74;100.00;101677.40;1764936;80;21501;-73
2021/10/30 03:06:51;;;;;;;37.40;25.70;;;;;;;3.74;100.00;101682.75;1765285;80;21019;-72
2021/10/30 03:09:19;;;;;;;39.57;23.90;;;;;;;3.75;100.00;101681.81;1793671;80;21079;-72
2021/10/30 03:11:46;;;;;;;38.70;22.73;;;;;;;3.76;100.00;101679.51;1793928;80;21504;-72
2021/10/30 03:14:13;;;;;;;39.33;24.63;;;;;;;3.77;100.00;101678.58;1740003;80;21079;-72
2021/10/30 03:16:40;;;;;;;39.47;24.87;;;;;;;3.76;100.00;101670.63;1764902;80;21536;-73
2021/10/30 03:19:07;;;;;;;38.33;24.73;;;;;;;3.75;100.00;101676.92;1796101;80;21064;-73
2021/10/30 03:21:35;;;;;;;38.37;22.87;;;;;;;3.74;100.00;101676.06;1796853;80;21051;-72
2021/10/30 03:24:02;;;;;;;42.00;24.63;;;;;;;3.74;100.00;101677.88;1796678;80;21051;-73
2021/10/30 03:26:29;;;;;;;37.40;24.00;;;;;;;3.75;100.00;101680.48;1796895;80;21043;-72
2021/10/30 03:28:57;;;;;;;38.97;25.77;;;;;;;3.74;100.00;101674.72;1796662;80;21505;-72
2021/10/30 03:31:25;;;;;;;39.33;24.67;;;;;;;3.74;100.00;101678.73;1773022;80;21071;-73
2021/10/30 03:33:51;;;;;;;39.40;26.40;;;;;;;3.71;100.00;101674.89;1772837;80;21004;-72
2021/10/30 03:36:20;;;;;;;37.87;24.80;;;;;;;3.67;100.00;101681.86;1797445;80;21059;-73
2021/10/30 03:38:47;;;;;;;40.20;24.60;;;;;;;3.64;100.00;101675.33;1773003;80;21000;-73
2021/10/30 03:41:14;;;;;;;38.13;24.27;;;;;;;3.61;100.00;101673.67;1797423;80;21543;-73
2021/10/30 03:43:41;;;;;;;41.50;24.50;;;;;;;3.60;100.00;101684.01;1799796;80;21034;-71
2021/10/30 03:46:08;;;;;;;39.23;25.53;;;;;;;3.57;100.00;101682.83;1801146;80;20975;-72
2021/10/30 03:48:36;;;;;;;40.93;26.80;;;;;;;3.55;100.00;101688.75;1771285;80;21020;-73
2021/10/30 03:51:03;;;;;;;38.27;25.27;;;;;;;3.51;100.00;101678.70;1795277;80;21000;-73
2021/10/30 03:53:31;;;;;;;42.27;25.00;;;;;;;3.50;100.00;101685.46;1768948;80;21551;-74
2021/10/30 03:55:58;;;;;;;39.93;25.13;;;;;;;3.49;100.00;101685.94;1794849;80;21024;-73
2021/10/30 03:58:25;;;;;;;39.30;25.23;;;;;;;3.50;100.00;101690.81;1795295;80;21627;-73
2021/10/30 04:00:52;;;;;;;39.70;24.83;;;;;;;3.51;100.00;101689.88;1795122;80;21059;-74
2021/10/30 04:03:19;;;;;;;42.37;26.63;;;;;;;3.50;100.00;101688.14;1768460;80;21540;-73
2021/10/30 04:05:47;;;;;;;37.50;25.43;;;;;;;3.47;100.00;101694.53;1795100;80;21032;-74
2021/10/30 04:08:18;;;;;;;36.07;24.53;;;;;;;3.46;100.00;101689.27;1794549;80;21012;-73
2021/10/30 04:10:45;;;;;;;41.67;26.20;;;;;;;3.46;100.00;101695.95;1791457;80;21028;-73
2021/10/30 04:13:12;;;;;;;43.70;25.67;;;;;;;3.45;100.00;101695.06;1795358;80;21016;-73
2021/10/30 04:15:40;;;;;;;36.67;25.13;;;;;;;3.44;100.00;101697.84;1795376;80;20996;-74
2021/10/30 04:18:07;;;;;;;41.60;28.37;;;;;;;3.41;100.00;101701.05;1785923;79;21017;-74
2021/10/30 04:20:35;;;;;;;38.90;25.63;;;;;;;3.36;100.00;101700.92;1763062;81;21041;-73
2021/10/30 04:23:02;;;;;;;41.37;26.87;;;;;;;3.32;100.00;101706.91;1757273;81;21057;-74
2021/10/30 04:25:29;;;;;;;38.07;25.50;;;;;;;3.31;100.00;101702.98;1762962;81;21037;-73
2021/10/30 04:27:57;;;;;;;40.53;25.90;;;;;;;3.30;100.00;101707.95;1756819;81;21072;-74
2021/10/30 04:30:24;;;;;;;41.40;26.50;;;;;;;3.27;100.00;101707.63;1757440;81;21466;-74
2021/10/30 04:32:51;;;;;;;40.90;27.43;;;;;;;3.24;100.00;101707.82;1763417;81;21064;-73
2021/10/30 04:35:18;;;;;;;40.70;27.60;;;;;;;3.21;100.00;101706.64;1763325;81;21044;-74
2021/10/30 04:37:45;;;;;;;42.47;27.37;;;;;;;3.18;100.00;101714.34;1763637;81;21037;-73
2021/10/30 04:40:12;;;;;;;43.13;27.57;;;;;;;3.20;100.00;101716.45;1763657;81;21045;-73
2021/10/30 04:42:39;;;;;;;45.70;28.23;;;;;;;3.22;100.00;101711.91;1732485;81;21013;-74
2021/10/30 04:45:07;;;;;;;44.40;27.83;;;;;;;3.23;100.00;101715.44;1760187;81;21040;-73
2021/10/30 04:47:34;;;;;;;44.17;28.57;;;;;;;3.23;100.00;101718.97;1767436;80;21059;-73
2021/10/30 04:50:01;;;;;;;41.97;27.00;;;;;;;3.25;100.00;101713.54;1741447;81;21060;-73
2021/10/30 04:52:28;;;;;;;45.60;28.97;;;;;;;3.27;100.00;101713.46;1768723;81;21068;-73
2021/10/30 04:54:55;;;;;;;44.00;27.60;;;;;;;3.30;100.00;101719.50;1740182;81;21029;-73
2021/10/30 04:57:24;;;;;;;40.00;26.90;;;;;;;3.32;100.00;101718.95;1739985;81;21049;-73
2021/10/30 04:59:51;;;;;;;37.80;25.87;;;;;;;3.37;100.00;101723.58;1769180;81;21069;-73
2021/10/30 05:02:18;;;;;;;41.70;26.47;;;;;;;3.42;100.00;101717.50;1769055;81;21553;-71
2021/10/30 05:04:45;;;;;;;37.47;24.63;;;;;;;3.47;100.00;101726.62;1769169;81;21017;-73
2021/10/30 05:07:14;;;;;;;38.40;23.33;;;;;;;3.53;100.00;101726.76;1769058;81;21558;-73
2021/10/30 05:09:41;;;;;;;37.43;24.53;;;;;;;3.60;100.00;101729.48;1769007;81;20989;-73
2021/10/30 05:12:09;;;;;;;38.77;25.20;;;;;;;3.66;100.00;101731.80;1739975;81;21096;-71
2021/10/30 05:14:38;;;;;;;38.73;24.70;;;;;;;3.72;100.00;101737.28;1768945;81;21037;-74
2021/10/30 05:17:06;;;;;;;37.03;23.53;;;;;;;3.78;100.00;101735.62;1768966;81;21084;-70
2021/10/30 05:19:36;;;;;;;36.97;24.23;;;;;;;3.86;100.00;101740.08;1733480;81;21053;-73
2021/10/30 05:22:03;;;;;;;33.93;23.33;;;;;;;3.95;100.00;101748.06;1731806;81;21009;-74
2021/10/30 05:24:31;;;;;;;39.17;25.43;;;;;;;4.03;100.00;101751.16;1704510;83;21058;-72
2021/10/30 05:26:58;;;;;;;38.57;25.37;;;;;;;4.11;100.00;101758.77;1671149;85;21081;-73
2021/10/30 05:29:26;;;;;;;39.93;24.53;;;;;;;4.16;100.00;101754.88;1729748;83;21074;-73
2021/10/30 05:31:53;;;;;;;39.47;23.27;;;;;;;4.25;100.00;101755.28;1671674;85;21034;-72
2021/10/30 05:34:20;;;;;;;34.60;23.10;;;;;;;4.32;100.00;101761.55;1729673;83;21074;-73
2021/10/30 05:36:50;;;;;;;38.40;23.70;;;;;;;4.42;100.00;101759.67;1729656;83;21010;-74
2021/10/30 05:39:23;;;;;;;38.60;25.10;;;;;;;4.49;100.00;101758.36;1697013;84;21102;-73
2021/10/30 05:41:50;;;;;;;37.67;25.53;;;;;;;4.55;100.00;101754.85;1700291;84;21093;-74
2021/10/30 05:44:17;;;;;;;36.97;24.57;;;;;;;4.63;100.00;101753.05;1704862;83;21026;-72
2021/10/30 05:46:45;;;;;;;38.37;23.83;;;;;;;4.70;100.00;101763.79;1728452;83;21098;-74
2021/10/30 05:49:14;;;;;;;35.67;22.40;;;;;;;4.77;100.00;101762.95;1729240;83;21062;-73
2021/10/30 05:51:41;;;;;;;36.90;22.77;;;;;;;4.84;100.00;101764.80;1729752;82;21010;-74
2021/10/30 05:54:08;;;;;;;37.23;22.97;;;;;;;4.89;100.00;101766.24;1694077;85;21561;-73
2021/10/30 05:56:35;;;;;;;38.33;23.40;;;;;;;4.95;100.00;101763.67;1732602;81;21006;-73
2021/10/30 05:59:02;;;;;;;41.03;24.90;;;;;;;5.01;100.00;101763.31;1733037;81;21502;-73
2021/10/30 06:01:30;;;;;;;37.10;22.90;;;;;;;5.10;100.00;101766.77;1760668;81;21081;-74
2021/10/30 06:03:57;;;;;;;36.40;23.23;;;;;;;5.19;100.00;101766.69;1733248;81;21549;-73
2021/10/30 06:06:24;;;;;;;34.17;21.47;;;;;;;5.27;100.00;101769.74;1732794;81;21061;-73
2021/10/30 06:08:51;;;;;;;34.47;21.83;;;;;;;5.36;100.00;101764.77;1732678;81;21057;-74
2021/10/30 06:11:18;;;;;;;33.80;21.00;;;;;;;5.43;100.00;101762.09;1732724;81;21077;-76
2021/10/30 06:13:47;;;;;;;33.60;19.73;;;;;;;5.54;100.00;101759.59;1732377;81;21081;-76
2021/10/30 06:16:15;;;;;;;32.10;21.07;;;;;;;5.65;100.00;101766.99;1730878;82;21083;-74
2021/10/30 06:18:43;;;;;;;36.60;23.80;;;;;;;5.71;100.00;101767.45;1731785;81;21068;-74
2021/10/30 06:21:10;;;;;;;31.80;20.37;;;;;;;5.79;100.00;101756.70;1702237;83;21082;-74
2021/10/30 06:23:37;;;;;;;32.60;20.27;;;;;;;5.87;100.00;101767.33;1719917;83;21036;-75
2021/10/30 06:26:04;;;;;;;34.50;19.97;;;;;;;5.99;100.00;101760.34;1734911;81;21051;-75
2021/10/30 06:28:32;;;;;;;31.43;20.10;;;;;;;6.12;100.00;101764.92;1734688;81;21063;-76
2021/10/30 06:30:59;;;;;;;36.73;21.10;;;;;;;6.23;100.00;101759.70;1733060;83;21080;-75
2021/10/30 06:33:26;;;;;;;36.10;21.83;;;;;;;6.34;100.00;101762.56;1691374;83;21072;-74
2021/10/30 06:35:53;;;;;;;34.97;20.33;;;;;;;6.48;100.00;101759.42;1767941;78;21004;-74
2021/10/30 06:40:49;;;;;;;33.13;19.73;;;;;;;6.85;100.00;101760.48;1669753;84;21753;-75
2021/10/30 06:43:15;;;;;;;31.30;19.40;;;;;;;7.05;100.00;101757.78;1693776;83;21075;-75
2021/10/30 06:45:45;;;;;;;33.00;19.70;;;;;;;7.21;100.00;101754.40;1677249;85;21137;-75
2021/10/30 06:48:12;;;;;;;34.77;18.37;;;;;;;7.40;100.00;101762.50;1685565;85;21028;-76
2021/10/30 06:50:39;;;;;;;40.37;20.47;;;;;;;7.58;100.00;101759.02;1686141;85;21145;-70
2021/10/30 06:53:07;;;;;;;31.83;19.17;;;;;;;7.78;100.00;101759.78;1686009;85;21062;-71
2021/10/30 06:55:33;;;;;;;32.43;19.53;;;;;;;8.01;100.00;101759.09;1747683;80;76003;-74
2021/10/30 06:58:00;;;;;;;33.53;19.17;;;;;;;8.20;100.00;101758.58;1774276;80;21026;-74
2021/10/30 07:57:43;;;;;;;27.50;16.20;;;;;;;13.03;100.00;101688.06;1759096;80;22212;-72
2021/10/30 08:00:12;;;;;;;27.60;15.95;;;;;;;13.33;100.00;101681.20;1829634;77;21010;-74
2021/10/30 08:02:43;;;;;;;32.58;16.93;;;;;;;13.47;100.00;101680.22;1808375;77;21493;-75
2021/10/30 08:05:12;;;;;;;32.08;17.60;;;;;;;13.44;100.00;101671.00;1827567;77;21518;-74
2021/10/30 08:07:43;;;;;;;28.75;17.07;;;;;;;13.55;100.00;101670.45;1829201;77;21633;-73
2021/10/30 08:10:11;;;;;;;26.42;16.35;;;;;;;13.68;100.00;101669.07;1829487;77;21072;-74
2021/10/30 08:12:40;;;;;;;24.95;16.00;;;;;;;13.84;100.00;101668.41;1826717;77;21517;-75
2021/10/30 08:15:07;;;;;;;31.37;17.12;;;;;;;14.05;100.00;101670.84;1769549;80;21050;-74
2021/10/30 08:17:35;;;;;;;25.85;15.72;;;;;;;14.17;100.00;101672.84;1758133;80;20994;-73
2021/10/30 08:20:02;;;;;;;27.07;15.85;;;;;;;14.32;100.00;101665.49;1768375;80;21010;-73
2021/10/30 08:22:30;;;;;;;27.00;15.25;;;;;;;14.51;100.00;101663.12;1761714;80;21057;-74
2021/10/30 08:24:57;;;;;;;29.55;15.65;;;;;;;14.71;100.00;101659.20;1749599;80;21029;-73
2021/10/30 08:27:24;;;;;;;31.85;16.55;;;;;;;15.00;100.00;101662.16;1788054;79;20955;-74
2021/10/30 08:29:51;;;;;;;34.03;16.60;;;;;;;15.22;100.00;101657.16;1761588;80;21444;-73
2021/10/30 08:32:18;;;;;;;26.15;15.80;;;;;;;15.23;100.00;101665.66;1774667;80;21120;-74
2021/10/30 08:34:46;;;;;;;29.18;15.18;;;;;;;15.32;100.00;101657.38;1798225;79;21002;-74
2021/10/30 08:37:13;;;;;;;28.95;15.95;;;;;;;15.41;100.00;101655.55;1772910;79;21070;-75
2021/10/30 08:39:41;;;;;;;21.27;13.30;;;;;;;15.54;100.00;101650.48;1776492;79;21025;-74
2021/10/30 08:42:08;;;;;;;22.75;12.75;;;;;;;15.64;100.00;101646.27;1783346;80;20981;-74
2021/10/30 08:44:37;;;;;;;25.90;15.32;;;;;;;15.66;100.00;101642.87;1797008;79;21039;-73
2021/10/30 08:47:05;;;;;;;25.95;13.35;;;;;;;15.85;100.00;101655.92;1832993;77;21057;-74
2021/10/30 08:49:35;;;;;;;24.65;13.55;;;;;;;16.03;100.00;101647.60;1800791;77;21103;-74
2021/10/30 08:52:03;;;;;;;21.10;12.25;;;;;;;16.12;100.00;101644.70;1823948;78;21081;-74
2021/10/30 08:54:30;;;;;;;21.65;13.45;;;;;;;16.20;100.00;101637.55;1814496;78;20997;-75
2021/10/30 08:56:57;;;;;;;23.60;12.88;;;;;;;16.12;100.00;101639.77;1794599;78;21584;-75
2021/10/30 08:59:41;;;;;;;22.35;12.13;;;;;;;16.09;100.00;101642.83;1836586;77;21063;-74
2021/10/30 09:02:09;;;;;;;20.65;10.43;;;;;;;16.27;100.00;101640.81;1816874;77;20994;-74
2021/10/30 09:04:36;;;;;;;21.60;9.95;;;;;;;16.50;100.00;101638.75;1795954;78;21053;-76
2021/10/30 09:07:07;;;;;;;22.27;10.63;;;;;;;16.74;100.00;101638.41;1826350;78;21006;-76
2021/10/30 09:09:37;;;;;;;28.52;14.05;;;;;;;16.96;100.00;101636.85;1796500;78;21499;-75
2021/10/30 09:12:05;;;;;;;21.95;11.08;;;;;;;17.01;100.00;101629.83;1817577;77;21049;-75
2021/10/30 09:14:35;;;;;;;18.07;9.43;;;;;;;17.07;100.00;101633.77;1758967;80;21010;-74
2021/10/30 09:17:15;;;;;;;21.23;10.25;;;;;;;16.97;100.00;101627.12;1814053;77;21081;-74
2021/10/30 09:19:45;;;;;;;21.70;11.93;;;;;;;16.82;100.00;101628.81;1854744;77;21009;-75
2021/10/30 09:22:13;;;;;;;15.15;8.03;;;;;;;16.82;100.00;101631.06;1845862;77;21015;-72
2021/10/30 09:25:05;;;;;;;15.10;7.80;;;;;;;16.96;100.00;101617.20;1856205;77;21010;-74
2021/10/30 09:28:01;;;;;;;15.05;7.45;;;;;;;17.10;100.00;101610.69;1745924;80;21546;-76
2021/10/30 09:30:35;;;;;;;24.95;8.88;;;;;;;17.35;100.00;101611.44;1676856;82;21058;-75
2021/10/30 09:33:10;;;;;;;15.13;7.47;;;;;;;17.44;100.00;101616.71;1708747;80;21019;-73
2021/10/30 09:35:43;;;;;;;19.48;8.08;;;;;;;17.51;100.00;101602.31;1733960;81;21018;-70
2021/10/30 09:38:34;;;;;;;16.45;7.83;;;;;;;17.35;100.00;101606.84;1761742;81;21034;-71
2021/10/30 09:41:03;;;;;;;16.12;7.58;;;;;;;17.24;100.00;101603.95;1758529;81;21542;-73
2021/10/30 09:43:30;;;;;;;24.43;8.63;;;;;;;17.27;100.00;101601.41;1715774;81;21051;-74
2021/10/30 09:46:06;;;;;;;15.70;7.58;;;;;;;17.33;100.00;101607.52;1729444;81;21085;-74
2021/10/30 09:48:34;;;;;;;15.08;7.92;;;;;;;17.42;100.00;101595.53;1750215;80;21137;-75
2021/10/30 09:51:02;;;;;;;21.48;7.67;;;;;;;17.52;100.00;101596.66;1731235;80;21073;-76
2021/10/30 09:53:39;;;;;;;22.35;8.83;;;;;;;17.64;100.00;101595.76;1739544;81;21021;-77
2021/10/30 09:56:09;;;;;;;15.83;8.10;;;;;;;17.72;100.00;101583.91;1758550;80;21085;-72
2021/10/30 09:58:45;;;;;;;18.35;8.38;;;;;;;17.73;100.00;101592.46;1747582;81;21046;-75
2021/10/30 10:01:19;;;;;;;16.27;7.85;;;;;;;17.68;100.00;101589.41;1745442;80;21095;-73
2021/10/30 10:03:49;;;;;;;16.65;8.15;;;;;;;17.56;100.00;101587.06;1717446;82;21030;-73
2021/10/30 10:06:22;;;;;;;17.30;8.63;;;;;;;17.45;100.00;101592.42;1735341;82;21551;-73
2021/10/30 10:08:48;;;;;;;16.60;8.30;;;;;;;17.42;100.00;101583.23;1770178;80;21027;-72
2021/10/30 10:11:17;;;;;;;17.32;8.60;;;;;;;17.44;100.00;101585.76;1757349;80;21147;-72
2021/10/30 10:13:48;;;;;;;19.65;8.38;;;;;;;17.44;100.00;101582.53;1716751;81;21117;-72
2021/10/30 10:16:22;;;;;;;17.27;8.55;;;;;;;17.41;100.00;101580.14;1739340;80;21483;-72
2021/10/30 10:18:53;;;;;;;20.10;8.25;;;;;;;17.45;100.00;101592.42;1778185;80;21078;-73
2021/10/30 10:21:28;;;;;;;23.10;9.38;;;;;;;17.54;100.00;101580.08;1747401;81;20998;-72
2021/10/30 10:23:56;;;;;;;18.23;8.70;;;;;;;17.69;100.00;101575.55;1710501;82;21498;-75
2021/10/30 10:26:51;;;;;;;18.37;8.80;;;;;;;17.80;100.00;101576.50;1688502;83;20987;-74
2021/10/30 10:29:38;;;;;;;19.17;8.15;;;;;;;17.81;100.00;101570.50;1689355;82;21060;-74
2021/10/30 10:32:24;;;;;;;13.35;7.70;;;;;;;17.74;100.00;101567.66;1719023;82;21030;-74
2021/10/30 10:34:51;;;;;;;14.98;8.35;;;;;;;17.57;100.00;101568.80;1709210;82;21033;-73
2021/10/30 10:37:22;;;;;;;14.90;8.25;;;;;;;17.56;100.00;101560.23;1692931;83;21072;-75
2021/10/30 10:39:56;;;;;;;15.72;7.45;;;;;;;17.68;100.00;101557.42;1671681;84;21086;-74
2021/10/30 10:42:40;;;;;;;12.28;7.03;;;;;;;17.69;100.00;101557.78;1680429;84;21525;-74
2021/10/30 10:45:15;;;;;;;19.23;7.67;;;;;;;17.65;100.00;101561.39;1705754;84;21050;-75
2021/10/30 10:47:49;;;;;;;21.20;8.28;;;;;;;17.39;100.00;101562.23;1613960;86;21138;-74
2021/10/30 10:50:32;;;;;;;13.58;7.42;;;;;;;17.31;100.00;101560.38;1640369;86;21060;-74
2021/10/30 10:53:09;;;;;;;18.70;8.20;;;;;;;17.40;100.00;101549.72;1643858;85;21014;-72
2021/10/30 10:55:40;;;;;;;14.53;7.67;;;;;;;17.49;100.00;101557.36;1619559;86;21194;-74
2021/10/30 10:58:08;;;;;;;14.47;7.17;;;;;;;17.55;100.00;101558.03;1608772;87;21083;-75
2021/10/30 11:00:35;;;;;;;17.00;6.92;;;;;;;17.53;100.00;101550.52;1620097;86;21031;-75
2021/10/30 11:03:02;;;;;;;12.78;6.87;;;;;;;17.68;100.00;101555.22;1629809;86;21003;-74
2021/10/30 11:05:36;;;;;;;17.12;7.83;;;;;;;17.82;100.00;101556.64;1605964;86;21042;-75
2021/10/30 11:08:14;;;;;;;16.97;7.37;;;;;;;17.95;100.00;101552.48;1618739;86;21037;-74
2021/10/30 11:10:43;;;;;;;36.73;9.75;;;;;;;18.02;100.00;101550.22;1618539;87;21120;-74
2021/10/30 11:13:13;;;;;;;20.62;7.55;;;;;;;18.04;100.00;101552.74;1583228;88;21599;-75
2021/10/30 11:15:53;;;;;;;18.82;8.00;;;;;;;18.09;100.00;101539.36;1593528;87;21165;-70
2021/10/30 11:21:17;;;;;;;25.75;9.10;;;;;;;18.09;100.00;101544.83;1590484;86;21527;-72
2021/10/30 11:23:50;;;;;;;17.55;7.08;;;;;;;18.13;100.00;101543.45;1636722;86;21047;-74
2021/10/30 11:26:30;;;;;;;16.62;7.65;;;;;;;18.10;99.73;101534.76;1617456;87;21132;-75
2021/10/30 11:29:14;;;;;;;22.07;7.03;;;;;;;18.02;99.54;101528.33;1622647;87;21069;-74
2021/10/30 11:31:42;;;;;;;15.95;6.60;;;;;;;18.06;100.00;101528.80;1579104;89;21078;-75
2021/10/30 11:34:13;;;;;;;13.88;6.55;;;;;;;18.10;100.00;101530.12;1557657;90;21108;-75
2021/10/30 11:36:41;;;;;;;11.25;6.05;;;;;;;18.09;100.00;101528.41;1535356;91;21617;-75
2021/10/30 11:39:11;;;;;;;14.38;6.45;;;;;;;17.98;100.00;101522.02;1541707;93;21178;-75
2021/10/30 11:41:40;;;;;;;17.85;7.42;;;;;;;17.84;100.00;101522.27;1526238;92;21122;-74
2021/10/30 11:44:10;;;;;;;20.45;7.17;;;;;;;17.75;100.00;101522.84;1535138;90;21176;-76
2021/10/30 11:46:47;;;;;;;24.47;7.47;;;;;;;17.68;100.00;101522.39;1555395;91;21123;-74
2021/10/30 11:49:16;;;;;;;10.30;5.45;;;;;;;17.69;100.00;101522.22;1504377;93;21121;-77
2021/10/30 11:51:44;;;;;;;23.77;7.47;;;;;;;17.66;100.00;101526.67;1526664;94;21163;-74
2021/10/30 11:54:12;;;;;;;31.93;10.68;;;;;;;17.69;100.00;101522.22;1530157;92;21086;-72
2021/10/30 11:56:40;;;;;;;23.10;7.87;;;;;;;17.64;100.00;101517.28;1548148;91;21130;-71
2021/10/30 11:59:09;;;;;;;11.88;6.53;;;;;;;17.61;100.00;101512.69;1554620;92;21586;-72
2021/10/30 12:01:43;;;;;;;12.78;6.65;;;;;;;17.61;100.00;101513.53;1538601;92;21125;-73
2021/10/30 12:04:15;;;;;;;;;;;;;;;17.64;100.00;101513.17;1556719;92;21053;-71
2021/10/30 12:06:52;;;;;;;25.70;8.05;;;;;;;17.57;100.00;101508.09;1540274;91;20522;-73
2021/10/30 12:09:29;;;;;;;47.30;11.57;;;;;;;17.51;100.00;101510.20;1549586;91;21644;-73
2021/10/30 12:11:59;;;;;;;53.65;14.50;;;;;;;17.51;100.00;101508.84;1542478;91;21632;-71
2021/10/30 12:14:34;;;;;;;34.78;9.55;;;;;;;17.64;100.00;101502.23;1549521;91;21088;-72
2021/10/30 12:17:12;;;;;;;16.02;6.20;;;;;;;17.88;100.00;101496.78;1557207;91;21069;-72
2021/10/30 12:19:42;;;;;;;15.08;6.20;;;;;;;18.04;100.00;101503.48;1534176;92;21199;-72
2021/10/30 12:22:25;;;;;;;16.25;6.78;;;;;;;18.27;100.00;101499.33;1558891;92;21096;-71